Time;durP1;ratioP1;P1;durP2;ratioP2;P2;SDS_P1;SDS_P2;PMS_P1;PMS_P2;Temp;Humidity;BMP_temperature;BMP_pressure;BME280_temperature;BME280_humidity;BME280_pressure;Samples;Min_cycle;Max_cycle;Signal;HPM_P1;HPM_P2
2022/03/06 00:00:49;;;;;;;69.90;33.30;;;;;;;0.88;59.12;99582.27;106113;1273;97967;-69
2022/03/06 00:03:18;;;;;;;68.70;33.60;;;;;;;0.88;59.28;99578.25;106011;1273;97879;-69
2022/03/06 00:05:48;;;;;;;70.90;34.60;;;;;;;0.88;59.27;99571.60;106013;1275;111437;-69
2022/03/06 00:08:16;;;;;;;69.70;32.50;;;;;;;0.86;59.28;99571.99;106045;1273;97895;-70
2022/03/06 00:10:44;;;;;;;64.60;31.90;;;;;;;0.87;59.25;99569.02;105953;1273;107392;-70
2022/03/06 00:13:14;;;;;;;65.50;30.60;;;;;;;0.87;59.23;99564.65;106165;1273;98079;-70
2022/03/06 00:15:44;;;;;;;64.00;31.90;;;;;;;0.86;59.33;99566.05;106045;1274;97984;-69
2022/03/06 00:18:12;;;;;;;60.60;29.30;;;;;;;0.86;59.41;99564.33;106038;1273;112265;-70
2022/03/06 00:20:42;;;;;;;55.00;27.00;;;;;;;0.86;59.29;99558.73;106013;1273;97935;-71
2022/03/06 00:23:11;;;;;;;53.40;26.80;;;;;;;0.87;59.34;99557.32;106117;1273;107494;-70
2022/03/06 00:25:39;;;;;;;53.60;25.20;;;;;;;0.87;59.43;99557.30;105973;1273;97882;-65
2022/03/06 00:28:09;;;;;;;54.80;27.10;;;;;;;0.87;59.56;99558.17;106040;1273;97958;-71
2022/03/06 00:30:38;;;;;;;56.80;27.20;;;;;;;0.87;59.43;99561.68;106018;1273;110996;-68
2022/03/06 00:33:07;;;;;;;51.00;26.50;;;;;;;0.86;59.34;99563.45;106024;1272;97826;-69
2022/03/06 00:35:35;;;;;;;53.40;26.30;;;;;;;0.86;59.53;99565.02;106130;1274;108344;-69
2022/03/06 00:38:05;;;;;;;53.60;25.40;;;;;;;0.87;59.55;99565.35;106076;1273;97034;-69
2022/03/06 00:40:34;;;;;;;48.60;24.10;;;;;;;0.87;59.51;99564.48;105973;1273;95352;-69
2022/03/06 00:43:03;;;;;;;48.90;23.00;;;;;;;0.88;59.43;99567.06;106004;1273;111944;-69
2022/03/06 00:45:34;;;;;;;43.40;22.40;;;;;;;0.86;59.50;99559.79;105987;1273;97961;-70
2022/03/06 00:48:03;;;;;;;46.30;21.90;;;;;;;0.87;59.38;99564.13;107842;1273;108710;-69
2022/03/06 00:50:34;;;;;;;42.80;21.50;;;;;;;0.86;59.57;99561.36;107913;1273;95928;-68
2022/03/06 00:53:03;;;;;;;44.80;21.10;;;;;;;0.87;59.39;99564.98;107915;1273;95736;-69
2022/03/06 00:55:33;;;;;;;47.40;22.90;;;;;;;0.88;59.43;99561.30;107488;1272;111685;-69
2022/03/06 00:58:05;;;;;;;44.70;22.20;;;;;;;0.90;59.52;99567.20;105923;1273;97894;-70
2022/03/06 01:00:41;;;;;;;45.20;21.70;;;;;;;0.93;59.49;99564.86;106039;1273;107816;-70
2022/03/06 01:03:17;;;;;;;44.50;22.10;;;;;;;0.92;59.38;99565.41;106105;1273;97883;-69
2022/03/06 01:05:50;;;;;;;45.90;22.40;;;;;;;0.93;59.42;99567.65;106123;1273;98071;-67
2022/03/06 01:08:18;;;;;;;47.20;22.00;;;;;;;0.92;59.50;99563.15;106065;1273;112009;-67
2022/03/06 01:10:53;;;;;;;47.90;23.50;;;;;;;0.92;59.58;99563.66;106082;1274;97877;-68
2022/03/06 01:13:23;;;;;;;46.10;22.60;;;;;;;0.93;59.56;99561.38;106010;1273;107804;-69
2022/03/06 01:15:51;;;;;;;48.70;22.30;;;;;;;0.93;59.52;99559.98;106059;1273;97611;-66
2022/03/06 01:18:20;;;;;;;47.10;22.90;;;;;;;0.93;59.59;99561.20;106137;1273;96479;-68
2022/03/06 01:20:50;;;;;;;46.60;21.10;;;;;;;0.93;59.60;99562.44;106130;1273;112013;-68
2022/03/06 01:23:19;;;;;;;49.40;23.40;;;;;;;0.91;59.53;99559.84;106215;1273;97879;-69
2022/03/06 01:25:49;;;;;;;48.20;23.70;;;;;;;0.90;59.70;99557.77;106109;1272;107768;-68
2022/03/06 01:28:17;;;;;;;47.40;23.30;;;;;;;0.89;59.61;99559.88;106052;1273;97947;-69
2022/03/06 01:30:48;;;;;;;50.40;23.20;;;;;;;0.89;59.67;99558.48;106098;1273;95769;-69
2022/03/06 01:33:18;;;;;;;50.90;25.80;;;;;;;0.89;59.57;99558.15;106034;1274;110846;-70
2022/03/06 01:35:50;;;;;;;54.70;26.50;;;;;;;0.88;59.73;99556.58;106008;1273;96305;-68
2022/03/06 01:38:19;;;;;;;51.90;25.20;;;;;;;0.88;59.60;99553.61;106169;1273;108214;-70
2022/03/06 01:40:49;;;;;;;53.50;26.00;;;;;;;0.86;59.67;99552.27;106112;1273;97865;-69
2022/03/06 01:43:19;;;;;;;51.90;26.90;;;;;;;0.85;59.55;99550.56;106117;1273;97871;-70
2022/03/06 01:45:54;;;;;;;48.50;24.80;;;;;;;0.84;59.75;99549.36;106092;1273;112193;-68
2022/03/06 01:48:22;;;;;;;52.00;25.80;;;;;;;0.83;59.68;99544.66;106121;1273;96594;-67
2022/03/06 01:50:54;;;;;;;51.10;26.60;;;;;;;0.83;59.85;99546.42;106091;1273;108343;-69
2022/03/06 01:53:22;;;;;;;52.40;25.00;;;;;;;0.82;59.81;99549.23;106136;1273;99014;-69
2022/03/06 01:55:52;;;;;;;49.30;23.80;;;;;;;0.81;59.72;99549.25;106156;1273;95681;-70
2022/03/06 01:58:24;;;;;;;51.60;25.50;;;;;;;0.77;59.61;99549.03;106120;1273;111346;-68
2022/03/06 02:00:52;;;;;;;49.30;24.80;;;;;;;0.74;59.66;99548.21;106226;1273;95178;-69
2022/03/06 02:03:23;;;;;;;51.80;24.80;;;;;;;0.73;59.70;99547.71;106193;1273;110544;-69
2022/03/06 02:05:58;;;;;;;48.10;23.00;;;;;;;0.72;59.82;99548.25;106128;1274;97999;-69
2022/03/06 02:08:27;;;;;;;50.30;23.30;;;;;;;0.71;59.74;99548.96;106225;1273;97864;-70
2022/03/06 02:10:55;;;;;;;44.60;23.10;;;;;;;0.71;59.72;99545.50;106126;1273;111701;-69
2022/03/06 02:13:29;;;;;;;48.20;23.10;;;;;;;0.70;59.85;99545.85;106234;1273;97951;-69
2022/03/06 02:16:01;;;;;;;46.30;23.50;;;;;;;0.70;59.83;99542.54;106164;1273;107677;-69
2022/03/06 02:18:29;;;;;;;50.30;23.50;;;;;;;0.69;59.74;99545.38;106192;1273;97759;-68
2022/03/06 02:21:07;;;;;;;51.10;23.70;;;;;;;0.65;59.83;99539.70;106139;1273;97940;-68
2022/03/06 02:23:39;;;;;;;49.50;23.80;;;;;;;0.64;59.81;99536.58;106212;1273;111288;-69
2022/03/06 02:26:11;;;;;;;49.30;23.40;;;;;;;0.65;59.86;99537.61;106234;1273;98913;-69
2022/03/06 02:28:41;;;;;;;47.40;23.10;;;;;;;0.66;59.93;99531.30;106212;1273;108255;-68
2022/03/06 02:31:16;;;;;;;;;;;;;;;0.64;59.75;99530.30;106237;1273;97863;-69
2022/03/06 02:33:44;;;;;;;49.50;22.60;;;;;;;0.62;59.88;99530.02;106202;1273;96971;-70
2022/03/06 02:36:12;;;;;;;45.30;23.10;;;;;;;0.62;59.83;99531.91;106098;1273;112040;-75
2022/03/06 02:38:42;;;;;;;50.10;23.80;;;;;;;0.63;59.92;99528.21;106207;1273;98047;-72
2022/03/06 02:41:10;;;;;;;47.40;21.70;;;;;;;0.65;59.90;99528.19;106191;1273;107797;-72
2022/03/06 02:43:38;;;;;;;52.70;23.20;;;;;;;0.65;59.74;99525.40;106216;1273;95190;-72
2022/03/06 02:46:06;;;;;;;47.40;23.30;;;;;;;0.65;59.87;99530.44;106282;1273;97930;-71
2022/03/06 02:48:34;;;;;;;45.60;21.40;;;;;;;0.66;59.96;99529.21;106059;1274;111399;-69
2022/03/06 02:51:02;;;;;;;49.30;23.20;;;;;;;0.66;59.88;99529.02;106075;1273;96982;-70
2022/03/06 02:53:30;;;;;;;49.30;23.20;;;;;;;0.67;60.00;99531.80;106226;1273;107696;-70
2022/03/06 02:56:06;;;;;;;47.40;23.50;;;;;;;0.68;59.84;99530.89;106186;1273;97884;-69
2022/03/06 02:58:34;;;;;;;50.50;23.40;;;;;;;0.69;60.02;99530.70;106180;1273;96960;-69
2022/03/06 03:01:04;;;;;;;48.00;23.60;;;;;;;0.68;59.97;99527.58;106084;1273;110622;-69
2022/03/06 03:03:44;;;;;;;48.70;23.30;;;;;;;0.69;59.98;99528.10;106185;1273;98643;-69
2022/03/06 03:06:14;;;;;;;49.50;23.60;;;;;;;0.69;60.09;99529.48;106152;1273;108046;-68
2022/03/06 03:08:46;;;;;;;46.20;21.10;;;;;;;0.68;59.96;99530.73;106212;1273;97828;-68
2022/03/06 03:11:17;;;;;;;47.90;22.30;;;;;;;0.69;60.04;99530.54;106173;1273;97738;-69
2022/03/06 03:13:48;;;;;;;43.80;21.10;;;;;;;0.68;59.97;99531.25;106120;1273;112098;-70
2022/03/06 03:16:18;;;;;;;42.70;20.20;;;;;;;0.67;60.00;99530.73;106126;1273;97966;-67
2022/03/06 03:18:48;;;;;;;42.60;20.30;;;;;;;0.66;59.96;99531.65;106126;1273;108397;-70
2022/03/06 03:21:19;;;;;;;43.50;20.50;;;;;;;0.66;60.00;99531.30;106139;1273;95380;-69
2022/03/06 03:23:49;;;;;;;39.00;18.10;;;;;;;0.65;59.86;99530.09;106164;1273;97954;-69
2022/03/06 03:26:19;;;;;;;41.30;19.90;;;;;;;0.65;59.98;99531.85;106105;1273;111524;-71
2022/03/06 03:28:50;;;;;;;39.90;19.80;;;;;;;0.65;60.03;99532.72;106147;1273;95255;-70
2022/03/06 03:31:22;;;;;;;40.00;18.90;;;;;;;0.65;60.06;99532.89;106179;1273;107727;-70
2022/03/06 03:33:52;;;;;;;43.50;19.40;;;;;;;0.66;60.03;99531.66;106093;1275;97949;-71
2022/03/06 03:36:20;;;;;;;40.60;19.20;;;;;;;0.65;60.06;99526.78;103509;1274;3652226;-70
2022/03/06 03:38:51;;;;;;;40.70;19.90;;;;;;;0.63;59.90;99527.52;106243;1274;97858;-71
2022/03/06 03:41:26;;;;;;;41.60;19.30;;;;;;;0.62;59.94;99525.29;105984;1276;108397;-67
2022/03/06 03:43:54;;;;;;;40.20;18.30;;;;;;;0.62;59.94;99523.73;106059;1275;98569;-69
2022/03/06 03:46:24;;;;;;;41.20;19.50;;;;;;;0.61;59.97;99522.85;106074;1274;98560;-70
2022/03/06 03:48:55;;;;;;;40.00;19.80;;;;;;;0.61;60.09;99522.88;106092;1275;111962;-71
2022/03/06 03:51:29;;;;;;;43.60;19.60;;;;;;;0.61;60.07;99517.98;106078;1274;97895;-73
2022/03/06 03:53:57;;;;;;;42.60;20.70;;;;;;;0.61;59.98;99521.65;106076;1276;107854;-69
2022/03/06 03:56:25;;;;;;;43.20;21.40;;;;;;;0.56;60.01;99522.98;106167;1274;97861;-72
2022/03/06 03:58:57;;;;;;;45.20;21.00;;;;;;;0.55;60.04;99524.23;106143;1275;97943;-70
2022/03/06 04:01:28;;;;;;;43.40;20.20;;;;;;;0.54;59.92;99526.71;106048;1274;110978;-67
2022/03/06 04:04:00;;;;;;;39.40;19.20;;;;;;;0.52;60.03;99528.66;106081;1274;95277;-69
2022/03/06 04:06:28;;;;;;;38.10;18.10;;;;;;;0.50;60.03;99525.74;106126;1274;107804;-67
2022/03/06 04:08:57;;;;;;;36.50;17.30;;;;;;;0.49;60.10;99527.70;106128;1274;97914;-68
2022/03/06 04:11:25;;;;;;;37.90;17.90;;;;;;;0.47;60.08;99523.55;106149;1274;97848;-68
2022/03/06 04:13:59;;;;;;;38.00;19.40;;;;;;;0.47;60.06;99528.09;106083;1276;112048;-68
2022/03/06 04:16:27;;;;;;;38.50;18.90;;;;;;;0.43;60.01;99528.87;106125;1274;97971;-68
2022/03/06 04:19:01;;;;;;;38.80;18.40;;;;;;;0.40;60.05;99531.40;106186;1274;108054;-70
2022/03/06 04:21:29;;;;;;;36.40;17.80;;;;;;;0.40;60.07;99531.05;106081;1274;97846;-69
2022/03/06 04:23:59;;;;;;;36.00;17.00;;;;;;;0.42;60.11;99533.44;106121;1274;97744;-68
2022/03/06 04:26:29;;;;;;;34.00;17.60;;;;;;;0.42;59.92;99532.20;105956;1276;110680;-70
2022/03/06 04:28:59;;;;;;;39.10;18.00;;;;;;;0.42;60.20;99531.69;106064;1275;97876;-69
2022/03/06 04:31:33;;;;;;;37.90;18.10;;;;;;;0.43;60.14;99531.15;106063;1273;108222;-68
2022/03/06 04:34:03;;;;;;;37.20;17.80;;;;;;;0.44;60.06;99530.08;106101;1274;97798;-69
2022/03/06 04:36:31;;;;;;;38.20;17.80;;;;;;;0.43;60.20;99533.75;106039;1274;98439;-69
2022/03/06 04:39:07;;;;;;;40.70;18.70;;;;;;;0.42;60.10;99535.52;106064;1275;112189;-69
2022/03/06 04:41:35;;;;;;;42.60;18.30;;;;;;;0.41;60.01;99539.21;106125;1274;98070;-69
2022/03/06 04:44:06;;;;;;;37.90;17.50;;;;;;;0.39;60.07;99539.45;106107;1274;108411;-68
2022/03/06 04:46:35;;;;;;;38.50;17.30;;;;;;;0.40;60.12;99540.13;106050;1274;97854;-69
2022/03/06 04:49:06;;;;;;;33.00;16.80;;;;;;;0.41;60.14;99540.10;106212;1274;97872;-72
2022/03/06 04:51:36;;;;;;;34.30;15.90;;;;;;;0.42;60.04;99537.98;106063;1274;111946;-69
2022/03/06 04:54:10;;;;;;;35.50;16.40;;;;;;;0.43;60.04;99533.08;106071;1274;97944;-71
2022/03/06 04:56:42;;;;;;;37.10;18.30;;;;;;;0.43;60.11;99538.29;106106;1274;107529;-69
2022/03/06 04:59:09;;;;;;;34.20;16.60;;;;;;;0.44;60.15;99540.73;106128;1275;95514;-69
2022/03/06 05:01:40;;;;;;;37.20;16.60;;;;;;;0.44;60.26;99544.38;106126;1274;97936;-68
2022/03/06 05:04:12;;;;;;;37.00;17.20;;;;;;;0.44;60.24;99544.03;106099;1274;112057;-71
2022/03/06 05:06:40;;;;;;;34.40;15.80;;;;;;;0.45;60.18;99543.50;106160;1274;97886;-71
2022/03/06 05:09:08;;;;;;;38.80;17.10;;;;;;;0.46;60.09;99544.16;106088;1274;107633;-69
2022/03/06 05:11:40;;;;;;;36.40;17.30;;;;;;;0.47;60.39;99553.23;106082;1274;97887;-69
2022/03/06 05:14:09;;;;;;;39.80;18.80;;;;;;;0.47;60.10;99554.43;106120;1274;97881;-70
2022/03/06 05:16:39;;;;;;;38.10;18.60;;;;;;;0.47;60.24;99550.95;106243;1274;111984;-69
2022/03/06 05:19:07;;;;;;;37.90;18.60;;;;;;;0.48;60.33;99553.36;106186;1273;97843;-69
2022/03/06 05:21:37;;;;;;;37.60;18.80;;;;;;;0.48;60.30;99558.61;106151;1273;108434;-70
2022/03/06 05:24:10;;;;;;;37.90;17.30;;;;;;;0.48;60.16;99560.36;106204;1273;97946;-69
2022/03/06 05:26:38;;;;;;;36.40;16.70;;;;;;;0.49;60.26;99560.85;106195;1273;97875;-69
2022/03/06 05:29:06;;;;;;;34.30;15.60;;;;;;;0.49;60.30;99562.96;106187;1273;111383;-71
2022/03/06 05:31:37;;;;;;;39.10;16.40;;;;;;;0.48;60.29;99560.17;106171;1273;97870;-66
2022/03/06 05:34:06;;;;;;;34.90;16.60;;;;;;;0.46;60.24;99558.83;106115;1273;108347;-68
2022/03/06 05:36:34;;;;;;;34.30;16.20;;;;;;;0.46;60.26;99562.31;106082;1273;97997;-70
2022/03/06 05:39:05;;;;;;;37.50;17.50;;;;;;;0.47;60.22;99564.38;106139;1273;95271;-69
2022/03/06 05:41:33;;;;;;;37.50;17.20;;;;;;;0.48;60.24;99557.21;106139;1273;111679;-68
2022/03/06 05:44:05;;;;;;;36.60;16.60;;;;;;;0.48;60.26;99553.90;106140;1273;95253;-69
2022/03/06 05:46:34;;;;;;;40.00;18.00;;;;;;;0.48;60.27;99549.36;106094;1275;107730;-69
2022/03/06 05:49:12;;;;;;;38.80;16.90;;;;;;;0.48;60.24;99546.39;106176;1273;95596;-69
2022/03/06 05:51:44;;;;;;;39.90;18.10;;;;;;;0.49;60.24;99549.35;106230;1274;97963;-69
2022/03/06 05:54:12;;;;;;;35.90;17.00;;;;;;;0.48;60.32;99549.89;106071;1273;111999;-67
2022/03/06 05:56:43;;;;;;;38.00;19.30;;;;;;;0.49;60.31;99551.78;106163;1273;97842;-67
2022/03/06 05:59:11;;;;;;;46.00;24.70;;;;;;;0.50;60.31;99551.06;106094;1273;107442;-69
2022/03/06 06:01:39;;;;;;;51.40;27.80;;;;;;;0.50;60.30;99549.14;106155;1274;97861;-72
2022/03/06 06:04:12;;;;;;;49.10;27.60;;;;;;;0.48;60.23;99549.70;106258;1273;95262;-71
2022/03/06 06:06:42;;;;;;;45.50;25.50;;;;;;;0.48;60.34;99553.02;106244;1273;111493;-70
2022/03/06 06:09:12;;;;;;;41.10;20.10;;;;;;;0.50;60.33;99553.33;106251;1273;97889;-71
2022/03/06 06:11:47;;;;;;;41.60;19.30;;;;;;;0.50;60.24;99553.84;106208;1274;108166;-71
2022/03/06 06:14:19;;;;;;;42.00;22.00;;;;;;;0.49;60.22;99552.13;106147;1274;97961;-69
2022/03/06 06:16:47;;;;;;;41.40;20.70;;;;;;;0.47;60.26;99558.80;106174;1275;97855;-72
2022/03/06 06:19:19;;;;;;;37.10;17.30;;;;;;;0.46;60.24;99557.08;106097;1274;112108;-70
2022/03/06 06:21:48;;;;;;;36.10;17.40;;;;;;;0.45;60.20;99554.65;106161;1274;96272;-73
2022/03/06 06:24:16;;;;;;;32.60;15.80;;;;;;;0.46;60.42;99556.20;106250;1274;106768;-73
2022/03/06 06:26:51;;;;;;;35.80;16.20;;;;;;;0.47;60.23;99555.66;106231;1274;95276;-72
2022/03/06 06:29:20;;;;;;;30.50;12.60;;;;;;;0.47;60.28;99553.73;106254;1274;97721;-70
2022/03/06 06:31:52;;;;;;;27.30;13.10;;;;;;;0.48;60.25;99556.50;106238;1274;111312;-71
2022/03/06 06:34:23;;;;;;;28.40;12.20;;;;;;;0.48;60.27;99556.86;106235;1274;97937;-69
2022/03/06 06:36:57;;;;;;;29.90;13.70;;;;;;;0.47;60.14;99558.97;106227;1273;107720;-69
2022/03/06 06:39:25;;;;;;;29.80;13.80;;;;;;;0.49;60.15;99564.86;106169;1274;97971;-69
2022/03/06 06:42:03;;;;;;;31.90;14.10;;;;;;;0.44;60.14;99566.18;106190;1274;97848;-68
2022/03/06 06:44:35;;;;;;;32.40;14.90;;;;;;;0.43;60.25;99566.56;106188;1274;111470;-68
2022/03/06 06:47:06;;;;;;;35.50;15.20;;;;;;;0.45;60.24;99567.73;106229;1273;96982;-69
2022/03/06 06:49:34;;;;;;;37.50;15.60;;;;;;;0.47;60.22;99563.52;106161;1274;108260;-67
2022/03/06 06:52:06;;;;;;;35.10;15.70;;;;;;;0.47;60.19;99564.55;106221;1274;97973;-71
2022/03/06 06:54:34;;;;;;;37.00;17.50;;;;;;;0.50;60.27;99566.42;106285;1274;97852;-69
2022/03/06 06:57:02;;;;;;;51.70;22.60;;;;;;;0.52;60.20;99563.59;106251;1273;111347;-72
2022/03/06 06:59:30;;;;;;;51.90;23.40;;;;;;;0.54;60.29;99567.36;106234;1274;95288;-71
2022/03/06 07:02:00;;;;;;;51.20;21.80;;;;;;;0.56;60.22;99565.94;106171;1274;108339;-71
2022/03/06 07:04:31;;;;;;;49.70;18.90;;;;;;;0.59;60.27;99565.70;106204;1274;97914;-71
2022/03/06 07:06:59;;;;;;;43.90;18.40;;;;;;;0.61;60.35;99565.13;106213;1274;97879;-72
2022/03/06 07:09:27;;;;;;;48.00;19.70;;;;;;;0.64;60.28;99565.55;106237;1274;111101;-71
2022/03/06 07:11:55;;;;;;;57.60;23.90;;;;;;;0.67;60.33;99561.11;106227;1274;97935;-69
2022/03/06 07:14:23;;;;;;;64.30;30.80;;;;;;;0.67;60.25;99558.70;106218;1274;107555;-71
2022/03/06 07:16:51;;;;;;;55.40;25.30;;;;;;;0.68;60.28;99561.98;106193;1274;95197;-70
2022/03/06 07:19:18;;;;;;;39.60;18.30;;;;;;;0.69;60.20;99563.69;106192;1274;98657;-71
2022/03/06 07:21:46;;;;;;;39.50;17.00;;;;;;;0.71;60.20;99565.91;106223;1274;111392;-70
2022/03/06 07:24:14;;;;;;;37.70;17.70;;;;;;;0.73;60.21;99557.65;106213;1274;97872;-70
2022/03/06 07:26:46;;;;;;;39.00;17.40;;;;;;;0.77;60.26;99560.36;106147;1274;107687;-70
2022/03/06 07:29:14;;;;;;;41.10;17.60;;;;;;;0.81;60.35;99556.77;106108;1274;97967;-69
2022/03/06 07:31:43;;;;;;;38.30;16.40;;;;;;;0.83;60.28;99561.43;106104;1274;97864;-72
2022/03/06 07:34:13;;;;;;;37.10;17.00;;;;;;;0.85;60.25;99561.20;106152;1274;111950;-71
2022/03/06 07:36:42;;;;;;;35.40;16.00;;;;;;;0.89;60.29;99563.03;106170;1274;97932;-71
2022/03/06 07:39:10;;;;;;;32.80;14.70;;;;;;;0.94;60.31;99561.86;106171;1274;107710;-71
2022/03/06 07:41:38;;;;;;;31.90;13.10;;;;;;;0.97;60.33;99558.98;106164;1273;97858;-71
2022/03/06 07:44:06;;;;;;;30.10;13.40;;;;;;;1.01;60.26;99561.85;106009;1275;97845;-70
2022/03/06 07:46:34;;;;;;;30.30;13.70;;;;;;;1.00;60.20;99559.45;106058;1274;112158;-69
2022/03/06 07:49:02;;;;;;;30.80;13.30;;;;;;;0.98;60.37;99557.05;106133;1274;97959;-69
2022/03/06 07:51:30;;;;;;;30.50;15.20;;;;;;;1.00;60.22;99557.69;106077;1274;108570;-70
2022/03/06 07:53:57;;;;;;;30.30;14.00;;;;;;;1.02;60.20;99555.70;106139;1274;96217;-70
2022/03/06 07:56:25;;;;;;;34.10;15.00;;;;;;;1.05;60.25;99553.54;106164;1274;97769;-70
2022/03/06 07:58:54;;;;;;;31.80;15.20;;;;;;;1.08;60.20;99555.41;106118;1273;111448;-70
2022/03/06 08:01:23;;;;;;;30.20;13.70;;;;;;;1.09;60.14;99554.85;106188;1273;97890;-71
2022/03/06 08:03:53;;;;;;;29.50;12.20;;;;;;;1.08;60.13;99552.25;106183;1274;107755;-71
2022/03/06 08:06:22;;;;;;;27.40;11.90;;;;;;;1.10;60.27;99551.15;106135;1274;97855;-70
2022/03/06 08:08:52;;;;;;;27.00;11.90;;;;;;;1.11;60.18;99552.69;106130;1274;97960;-71
2022/03/06 08:11:20;;;;;;;29.60;12.70;;;;;;;1.14;60.18;99551.76;106151;1274;111412;-72
2022/03/06 08:13:48;;;;;;;29.60;12.50;;;;;;;1.17;60.31;99549.04;106217;1273;97871;-70
2022/03/06 08:16:16;;;;;;;32.30;13.60;;;;;;;1.22;60.20;99541.92;106207;1274;107738;-72
2022/03/06 08:18:44;;;;;;;27.20;11.60;;;;;;;1.27;60.25;99540.40;106003;1274;97869;-71
2022/03/06 08:21:16;;;;;;;29.70;12.90;;;;;;;1.27;60.25;99540.20;106170;1272;97961;-71
2022/03/06 08:23:44;;;;;;;30.20;13.50;;;;;;;1.26;60.19;99536.75;106026;1274;112076;-72
2022/03/06 08:26:12;;;;;;;27.80;11.00;;;;;;;1.27;60.07;99536.38;105932;1274;95360;-69
2022/03/06 08:28:40;;;;;;;23.80;10.20;;;;;;;1.25;60.16;99538.02;106084;1274;107820;-73
2022/03/06 08:31:10;;;;;;;28.00;11.70;;;;;;;1.26;60.06;99536.58;106089;1274;97876;-71
2022/03/06 08:33:38;;;;;;;26.70;12.10;;;;;;;1.29;60.19;99537.54;106063;1273;97875;-73
2022/03/06 08:36:06;;;;;;;28.80;12.00;;;;;;;1.36;60.28;99540.16;106034;1274;111401;-73
2022/03/06 08:38:34;;;;;;;26.00;10.70;;;;;;;1.42;60.15;99537.19;106149;1273;95202;-73
2022/03/06 08:41:03;;;;;;;24.70;10.30;;;;;;;1.45;60.05;99539.04;106008;1273;107580;-72
2022/03/06 08:43:31;;;;;;;25.00;10.10;;;;;;;1.50;60.32;99538.54;106039;1274;97731;-73
2022/03/06 08:45:59;;;;;;;22.20;8.70;;;;;;;1.55;60.27;99537.53;106066;1274;97941;-73
2022/03/06 08:48:27;;;;;;;28.30;10.90;;;;;;;1.57;60.21;99537.82;106079;1273;111377;-72
2022/03/06 08:51:02;;;;;;;21.70;8.40;;;;;;;1.60;60.23;99538.10;106073;1273;96617;-70
2022/03/06 08:53:35;;;;;;;21.20;8.80;;;;;;;1.60;60.02;99540.71;106067;1273;107490;-71
2022/03/06 08:56:03;;;;;;;24.80;9.70;;;;;;;1.59;59.88;99540.75;106067;1273;97841;-71
2022/03/06 08:58:30;;;;;;;24.00;9.40;;;;;;;1.59;60.10;99539.89;106081;1273;95626;-66
2022/03/06 09:01:03;;;;;;;25.70;9.90;;;;;;;1.59;59.83;99542.14;106121;1273;112071;-70
2022/03/06 09:03:34;;;;;;;22.00;8.60;;;;;;;1.64;59.71;99538.33;106129;1274;95924;-71
2022/03/06 09:06:06;;;;;;;24.80;9.10;;;;;;;1.67;59.97;99539.81;106100;1273;108409;-71
2022/03/06 09:08:34;;;;;;;20.90;8.10;;;;;;;1.70;59.92;99539.90;106145;1273;97983;-71
2022/03/06 09:11:08;;;;;;;22.10;7.60;;;;;;;1.72;59.83;99535.83;106108;1273;97870;-72
2022/03/06 09:13:36;;;;;;;24.30;8.70;;;;;;;1.71;59.86;99536.55;106126;1273;111402;-70
2022/03/06 09:16:09;;;;;;;22.80;8.00;;;;;;;1.75;59.84;99530.33;106118;1274;97991;-71
2022/03/06 09:18:43;;;;;;;20.90;7.50;;;;;;;1.77;59.89;99527.82;106137;1273;107663;-71
2022/03/06 09:21:12;;;;;;;22.90;9.30;;;;;;;1.74;59.68;99528.95;106070;1273;95532;-72
2022/03/06 09:23:40;;;;;;;20.40;8.10;;;;;;;1.74;59.81;99523.35;106155;1273;97971;-71
2022/03/06 09:26:08;;;;;;;19.40;7.30;;;;;;;1.74;59.32;99526.85;106097;1273;112454;-72
2022/03/06 09:28:36;;;;;;;23.60;8.50;;;;;;;1.78;59.69;99523.08;106116;1273;96053;-74
2022/03/06 09:31:04;;;;;;;21.40;8.30;;;;;;;1.80;59.53;99521.11;106096;1273;107672;-70
2022/03/06 09:33:32;;;;;;;20.60;8.30;;;;;;;1.83;59.90;99522.92;106101;1273;96311;-71
2022/03/06 09:36:01;;;;;;;23.00;8.70;;;;;;;1.87;59.86;99524.73;106169;1273;96968;-71
2022/03/06 09:38:34;;;;;;;21.80;8.00;;;;;;;1.92;59.56;99525.80;106134;1273;110548;-71
2022/03/06 09:41:08;;;;;;;16.00;6.40;;;;;;;1.93;59.35;99525.95;106102;1273;97977;-71
2022/03/06 09:43:41;;;;;;;22.00;8.10;;;;;;;1.94;59.49;99524.01;106039;1273;107715;-69
2022/03/06 09:46:11;;;;;;;21.40;8.50;;;;;;;1.98;59.32;99526.16;106100;1273;96276;-71
2022/03/06 09:48:39;;;;;;;18.70;6.60;;;;;;;2.01;59.54;99521.15;106039;1273;97864;-72
2022/03/06 09:51:07;;;;;;;17.60;6.00;;;;;;;2.02;59.06;99522.04;106092;1273;111407;-73
2022/03/06 09:53:40;;;;;;;15.80;6.10;;;;;;;2.01;59.17;99517.16;106206;1273;96552;-70
2022/03/06 09:56:08;;;;;;;18.00;6.50;;;;;;;2.04;58.70;99520.02;106128;1273;107849;-71
2022/03/06 09:58:36;;;;;;;18.60;6.60;;;;;;;2.05;58.75;99515.98;106225;1273;97099;-73
2022/03/06 10:01:04;;;;;;;16.90;5.90;;;;;;;2.09;59.25;99518.83;106058;1272;95803;-70
2022/03/06 10:03:36;;;;;;;15.70;5.40;;;;;;;2.17;59.25;99516.84;106000;1273;111382;-72
2022/03/06 10:06:07;;;;;;;16.10;5.70;;;;;;;2.22;59.01;99512.83;106077;1273;97951;-75
2022/03/06 10:08:37;;;;;;;17.70;6.20;;;;;;;2.27;59.22;99510.95;106116;1273;107747;-72
2022/03/06 10:11:15;;;;;;;15.60;6.00;;;;;;;2.33;59.32;99512.67;106009;1273;96551;-72
2022/03/06 10:13:45;;;;;;;15.90;6.10;;;;;;;2.41;58.98;99504.73;106003;1273;95240;-72
2022/03/06 10:16:16;;;;;;;16.90;6.00;;;;;;;2.46;58.92;99500.35;106037;1273;112868;-72
2022/03/06 10:18:56;;;;;;;13.50;5.00;;;;;;;2.50;59.06;99501.45;105999;1273;97893;-72
2022/03/06 10:21:28;;;;;;;14.70;5.20;;;;;;;2.53;58.93;99498.37;105873;1273;107857;-73
2022/03/06 10:24:06;;;;;;;13.10;5.50;;;;;;;2.57;58.92;99494.57;106158;1273;97991;-73
2022/03/06 10:26:37;;;;;;;12.60;5.00;;;;;;;2.59;58.89;99496.25;106192;1273;97942;-75
2022/03/06 10:29:11;;;;;;;13.00;5.30;;;;;;;2.62;58.87;99493.55;106017;1273;110362;-74
2022/03/06 10:31:58;;;;;;;15.10;5.30;;;;;;;2.66;58.82;99490.94;105957;1273;97990;-72
2022/03/06 10:34:39;;;;;;;13.70;5.40;;;;;;;2.69;58.77;99490.65;105963;1273;106963;-72
2022/03/06 10:37:12;;;;;;;12.80;4.50;;;;;;;2.70;58.54;99490.80;105976;1273;98047;-72
2022/03/06 10:39:46;;;;;;;11.50;4.60;;;;;;;2.74;58.64;99488.08;106044;1273;97902;-71
2022/03/06 10:42:22;;;;;;;13.80;4.80;;;;;;;2.77;58.67;99484.63;106098;1273;111199;-70
2022/03/06 10:44:50;;;;;;;14.20;4.70;;;;;;;2.81;58.17;99484.65;106172;1273;97736;-72
2022/03/06 10:47:19;;;;;;;11.90;4.40;;;;;;;2.83;58.34;99482.16;106110;1273;109071;-71
2022/03/06 10:50:05;;;;;;;12.00;4.90;;;;;;;2.85;58.48;99482.10;106134;1273;96034;-72
2022/03/06 10:52:43;;;;;;;11.00;4.80;;;;;;;2.90;58.50;99478.59;106166;1273;97960;-69
2022/03/06 10:55:11;;;;;;;12.40;4.00;;;;;;;2.90;58.13;99476.47;106330;1272;111190;-72
2022/03/06 10:57:40;;;;;;;12.40;4.90;;;;;;;2.90;58.27;99475.27;106195;1273;96402;-69
2022/03/06 11:00:10;;;;;;;17.30;6.20;;;;;;;2.94;58.10;99472.48;106135;1273;107732;-71
2022/03/06 11:02:39;;;;;;;16.30;5.70;;;;;;;2.94;57.46;99468.79;106095;1273;96629;-73
2022/03/06 11:05:09;;;;;;;18.90;7.20;;;;;;;2.91;58.04;99467.34;106138;1273;97873;-72
2022/03/06 11:07:37;;;;;;;17.00;6.10;;;;;;;2.93;58.15;99468.13;106086;1273;111298;-70
2022/03/06 11:10:07;;;;;;;16.90;5.90;;;;;;;2.97;57.82;99460.30;106112;1273;97823;-73
2022/03/06 11:12:36;;;;;;;13.80;4.90;;;;;;;2.98;57.94;99455.18;106151;1273;109399;-73
2022/03/06 11:15:06;;;;;;;12.80;5.40;;;;;;;3.00;58.04;99453.37;106122;1273;97996;-70
2022/03/06 11:17:35;;;;;;;13.50;4.80;;;;;;;3.02;57.88;99455.23;106222;1273;97931;-70
2022/03/06 11:20:03;;;;;;;12.30;4.80;;;;;;;3.02;57.80;99453.83;106189;1273;112626;-72
2022/03/06 11:22:52;;;;;;;12.80;5.10;;;;;;;2.98;57.79;99450.81;106067;1274;97970;-73
2022/03/06 11:25:27;;;;;;;18.20;5.90;;;;;;;2.96;57.69;99440.20;106102;1273;107794;-73
2022/03/06 11:28:31;;;;;;;16.00;5.50;;;;;;;2.93;57.21;99439.41;106172;1273;97910;-74
2022/03/06 11:31:00;;;;;;;19.70;6.50;;;;;;;2.89;57.76;99442.52;106119;1273;96299;-73